sensor_id;sensor_type;location;lat;lon;timestamp;P1;durP1;ratioP1;P2;durP2;ratioP2
71174;SDS011;58876;51.994;4.472;2022-10-17T00:01:04;78.47;;;78.47;;
71174;SDS011;58876;51.994;4.472;2022-10-17T00:03:31;101.91;;;101.91;;
71174;SDS011;58876;51.994;4.472;2022-10-17T00:05:58;143.52;;;143.52;;
71174;SDS011;58876;51.994;4.472;2022-10-17T00:08:24;395.39;;;395.39;;
71174;SDS011;58876;51.994;4.472;2022-10-17T00:10:58;260.96;;;260.96;;
71174;SDS011;58876;51.994;4.472;2022-10-17T00:13:26;290.19;;;290.19;;
71174;SDS011;58876;51.994;4.472;2022-10-17T00:15:52;309.85;;;309.85;;
71174;SDS011;58876;51.994;4.472;2022-10-17T00:18:18;499.16;;;499.16;;
71174;SDS011;58876;51.994;4.472;2022-10-17T00:20:43;511.85;;;511.85;;
71174;SDS011;58876;51.994;4.472;2022-10-17T00:23:09;338.17;;;338.17;;
71174;SDS011;58876;51.994;4.472;2022-10-17T00:25:34;420.95;;;420.95;;
71174;SDS011;58876;51.994;4.472;2022-10-17T00:28:01;136.32;;;136.32;;
71174;SDS011;58876;51.994;4.472;2022-10-17T00:30:27;135.41;;;135.41;;
71174;SDS011;58876;51.994;4.472;2022-10-17T00:32:52;140.36;;;140.36;;
71174;SDS011;58876;51.994;4.472;2022-10-17T00:35:18;355.16;;;355.16;;
71174;SDS011;58876;51.994;4.472;2022-10-17T00:37:43;131.66;;;131.66;;
71174;SDS011;58876;51.994;4.472;2022-10-17T00:40:10;76.83;;;76.83;;
71174;SDS011;58876;51.994;4.472;2022-10-17T00:42:35;70.30;;;70.30;;
71174;SDS011;58876;51.994;4.472;2022-10-17T00:47:39;60.46;;;60.46;;
71174;SDS011;58876;51.994;4.472;2022-10-17T00:50:06;74.77;;;74.77;;
71174;SDS011;58876;51.994;4.472;2022-10-17T00:52:32;76.18;;;76.18;;
71174;SDS011;58876;51.994;4.472;2022-10-17T00:55:00;186.44;;;186.44;;
71174;SDS011;58876;51.994;4.472;2022-10-17T00:57:34;211.65;;;211.65;;
71174;SDS011;58876;51.994;4.472;2022-10-17T01:00:00;135.85;;;135.85;;
71174;SDS011;58876;51.994;4.472;2022-10-17T01:02:33;140.23;;;140.23;;
71174;SDS011;58876;51.994;4.472;2022-10-17T01:04:58;131.03;;;131.03;;
71174;SDS011;58876;51.994;4.472;2022-10-17T01:07:25;123.89;;;123.89;;
71174;SDS011;58876;51.994;4.472;2022-10-17T01:09:53;540.58;;;540.58;;
71174;SDS011;58876;51.994;4.472;2022-10-17T01:12:21;403.18;;;403.18;;
71174;SDS011;58876;51.994;4.472;2022-10-17T01:22:48;456.87;;;456.87;;
71174;SDS011;58876;51.994;4.472;2022-10-17T01:31:12;261.09;;;261.09;;
71174;SDS011;58876;51.994;4.472;2022-10-17T01:33:43;520.37;;;520.37;;
71174;SDS011;58876;51.994;4.472;2022-10-17T01:36:23;549.89;;;549.89;;
71174;SDS011;58876;51.994;4.472;2022-10-17T01:39:11;229.48;;;229.48;;
71174;SDS011;58876;51.994;4.472;2022-10-17T01:44:14;66.70;;;66.70;;
71174;SDS011;58876;51.994;4.472;2022-10-17T01:46:48;51.88;;;51.88;;
71174;SDS011;58876;51.994;4.472;2022-10-17T01:49:20;47.60;;;47.60;;
71174;SDS011;58876;51.994;4.472;2022-10-17T01:51:53;46.00;;;46.00;;
71174;SDS011;58876;51.994;4.472;2022-10-17T01:54:26;26.25;;;26.25;;
71174;SDS011;58876;51.994;4.472;2022-10-17T01:56:58;52.07;;;52.07;;
71174;SDS011;58876;51.994;4.472;2022-10-17T01:59:37;53.94;;;53.94;;
71174;SDS011;58876;51.994;4.472;2022-10-17T02:02:08;40.58;;;40.58;;
71174;SDS011;58876;51.994;4.472;2022-10-17T02:04:38;28.41;;;28.41;;
71174;SDS011;58876;51.994;4.472;2022-10-17T02:07:07;52.18;;;52.18;;
71174;SDS011;58876;51.994;4.472;2022-10-17T02:09:33;41.27;;;41.27;;
71174;SDS011;58876;51.994;4.472;2022-10-17T02:15:03;33.47;;;33.47;;
71174;SDS011;58876;51.994;4.472;2022-10-17T02:17:57;41.72;;;41.72;;
71174;SDS011;58876;51.994;4.472;2022-10-17T02:21:06;41.15;;;41.15;;
71174;SDS011;58876;51.994;4.472;2022-10-17T02:26:32;37.51;;;37.51;;
71174;SDS011;58876;51.994;4.472;2022-10-17T02:29:16;25.87;;;25.87;;
71174;SDS011;58876;51.994;4.472;2022-10-17T02:35:11;19.79;;;19.79;;
71174;SDS011;58876;51.994;4.472;2022-10-17T02:37:39;12.75;;;12.75;;
71174;SDS011;58876;51.994;4.472;2022-10-17T02:40:09;15.42;;;15.42;;
71174;SDS011;58876;51.994;4.472;2022-10-17T02:42:41;19.61;;;19.61;;
71174;SDS011;58876;51.994;4.472;2022-10-17T02:45:09;23.82;;;23.82;;
71174;SDS011;58876;51.994;4.472;2022-10-17T02:47:41;32.44;;;32.44;;
71174;SDS011;58876;51.994;4.472;2022-10-17T02:50:11;34.89;;;34.89;;
71174;SDS011;58876;51.994;4.472;2022-10-17T02:52:39;47.70;;;47.70;;
71174;SDS011;58876;51.994;4.472;2022-10-17T02:55:16;33.21;;;33.21;;
71174;SDS011;58876;51.994;4.472;2022-10-17T02:57:43;64.82;;;64.82;;
71174;SDS011;58876;51.994;4.472;2022-10-17T03:00:14;183.39;;;183.39;;
71174;SDS011;58876;51.994;4.472;2022-10-17T03:02:44;161.23;;;161.23;;
71174;SDS011;58876;51.994;4.472;2022-10-17T03:05:15;132.27;;;132.27;;
71174;SDS011;58876;51.994;4.472;2022-10-17T03:07:43;244.02;;;244.02;;
71174;SDS011;58876;51.994;4.472;2022-10-17T03:10:10;257.66;;;257.66;;
71174;SDS011;58876;51.994;4.472;2022-10-17T03:12:35;275.68;;;275.68;;
71174;SDS011;58876;51.994;4.472;2022-10-17T03:15:01;279.33;;;279.33;;
71174;SDS011;58876;51.994;4.472;2022-10-17T03:17:26;264.60;;;264.60;;
71174;SDS011;58876;51.994;4.472;2022-10-17T03:19:52;297.97;;;297.97;;
71174;SDS011;58876;51.994;4.472;2022-10-17T03:22:17;307.41;;;307.41;;
71174;SDS011;58876;51.994;4.472;2022-10-17T03:24:43;306.67;;;306.67;;
71174;SDS011;58876;51.994;4.472;2022-10-17T03:27:08;279.25;;;279.25;;
71174;SDS011;58876;51.994;4.472;2022-10-17T03:29:34;266.73;;;266.73;;
71174;SDS011;58876;51.994;4.472;2022-10-17T03:31:59;233.52;;;233.52;;
71174;SDS011;58876;51.994;4.472;2022-10-17T03:34:25;213.00;;;213.00;;
71174;SDS011;58876;51.994;4.472;2022-10-17T03:36:50;204.30;;;204.30;;
71174;SDS011;58876;51.994;4.472;2022-10-17T03:39:16;176.38;;;176.38;;
71174;SDS011;58876;51.994;4.472;2022-10-17T03:41:41;134.72;;;134.72;;
71174;SDS011;58876;51.994;4.472;2022-10-17T03:44:07;94.12;;;94.12;;
71174;SDS011;58876;51.994;4.472;2022-10-17T03:46:32;128.00;;;128.00;;
71174;SDS011;58876;51.994;4.472;2022-10-17T03:48:57;178.46;;;178.46;;
71174;SDS011;58876;51.994;4.472;2022-10-17T03:51:23;203.44;;;203.44;;
71174;SDS011;58876;51.994;4.472;2022-10-17T03:53:49;212.15;;;212.15;;
71174;SDS011;58876;51.994;4.472;2022-10-17T03:56:18;184.94;;;184.94;;
71174;SDS011;58876;51.994;4.472;2022-10-17T03:58:49;159.92;;;159.92;;
71174;SDS011;58876;51.994;4.472;2022-10-17T04:01:16;165.64;;;165.64;;
71174;SDS011;58876;51.994;4.472;2022-10-17T04:03:43;152.53;;;152.53;;
71174;SDS011;58876;51.994;4.472;2022-10-17T04:06:13;190.95;;;190.95;;
71174;SDS011;58876;51.994;4.472;2022-10-17T04:08:39;222.34;;;222.34;;
71174;SDS011;58876;51.994;4.472;2022-10-17T04:11:05;229.91;;;229.91;;
71174;SDS011;58876;51.994;4.472;2022-10-17T04:13:32;198.22;;;198.22;;
71174;SDS011;58876;51.994;4.472;2022-10-17T04:15:59;184.31;;;184.31;;
71174;SDS011;58876;51.994;4.472;2022-10-17T04:18:26;186.34;;;186.34;;
71174;SDS011;58876;51.994;4.472;2022-10-17T04:20:52;184.07;;;184.07;;
71174;SDS011;58876;51.994;4.472;2022-10-17T04:23:18;191.01;;;191.01;;
71174;SDS011;58876;51.994;4.472;2022-10-17T04:25:44;201.30;;;201.30;;
71174;SDS011;58876;51.994;4.472;2022-10-17T04:28:10;197.99;;;197.99;;
71174;SDS011;58876;51.994;4.472;2022-10-17T04:30:35;217.81;;;217.81;;
71174;SDS011;58876;51.994;4.472;2022-10-17T04:33:01;237.36;;;237.36;;
71174;SDS011;58876;51.994;4.472;2022-10-17T04:35:27;199.19;;;199.19;;
71174;SDS011;58876;51.994;4.472;2022-10-17T04:37:52;178.62;;;178.62;;
71174;SDS011;58876;51.994;4.472;2022-10-17T04:40:18;188.98;;;188.98;;
71174;SDS011;58876;51.994;4.472;2022-10-17T04:42:43;207.83;;;207.83;;
71174;SDS011;58876;51.994;4.472;2022-10-17T04:45:09;208.69;;;208.69;;
71174;SDS011;58876;51.994;4.472;2022-10-17T04:47:34;195.77;;;195.77;;
71174;SDS011;58876;51.994;4.472;2022-10-17T04:50:07;174.92;;;174.92;;
71174;SDS011;58876;51.994;4.472;2022-10-17T04:52:33;199.60;;;199.60;;
71174;SDS011;58876;51.994;4.472;2022-10-17T04:55:02;194.91;;;194.91;;
71174;SDS011;58876;51.994;4.472;2022-10-17T04:57:29;207.21;;;207.21;;
71174;SDS011;58876;51.994;4.472;2022-10-17T04:59:54;227.69;;;227.69;;
71174;SDS011;58876;51.994;4.472;2022-10-17T05:02:19;237.36;;;237.36;;
71174;SDS011;58876;51.994;4.472;2022-10-17T05:04:45;241.26;;;241.26;;
71174;SDS011;58876;51.994;4.472;2022-10-17T05:07:10;176.60;;;176.60;;
71174;SDS011;58876;51.994;4.472;2022-10-17T05:09:36;185.28;;;185.28;;
71174;SDS011;58876;51.994;4.472;2022-10-17T05:12:01;190.26;;;190.26;;
71174;SDS011;58876;51.994;4.472;2022-10-17T05:14:27;213.54;;;213.54;;
71174;SDS011;58876;51.994;4.472;2022-10-17T05:16:53;206.02;;;206.02;;
71174;SDS011;58876;51.994;4.472;2022-10-17T05:19:18;201.83;;;201.83;;
71174;SDS011;58876;51.994;4.472;2022-10-17T05:21:43;163.43;;;163.43;;
71174;SDS011;58876;51.994;4.472;2022-10-17T05:24:10;108.33;;;108.33;;
71174;SDS011;58876;51.994;4.472;2022-10-17T05:26:37;66.54;;;66.54;;
71174;SDS011;58876;51.994;4.472;2022-10-17T05:29:02;46.00;;;46.00;;
71174;SDS011;58876;51.994;4.472;2022-10-17T05:31:28;52.63;;;52.63;;
71174;SDS011;58876;51.994;4.472;2022-10-17T05:33:54;45.91;;;45.91;;
71174;SDS011;58876;51.994;4.472;2022-10-17T05:36:20;28.59;;;28.59;;
71174;SDS011;58876;51.994;4.472;2022-10-17T05:38:49;35.53;;;35.53;;
71174;SDS011;58876;51.994;4.472;2022-10-17T05:41:16;51.12;;;51.12;;
71174;SDS011;58876;51.994;4.472;2022-10-17T05:43:42;30.13;;;30.13;;
71174;SDS011;58876;51.994;4.472;2022-10-17T05:46:08;37.89;;;37.89;;
71174;SDS011;58876;51.994;4.472;2022-10-17T05:48:34;35.92;;;35.92;;
71174;SDS011;58876;51.994;4.472;2022-10-17T05:51:00;26.05;;;26.05;;
71174;SDS011;58876;51.994;4.472;2022-10-17T05:53:32;18.74;;;18.74;;
71174;SDS011;58876;51.994;4.472;2022-10-17T05:56:02;45.44;;;45.44;;
71174;SDS011;58876;51.994;4.472;2022-10-17T05:58:29;34.67;;;34.67;;
71174;SDS011;58876;51.994;4.472;2022-10-17T06:01:00;35.13;;;35.13;;
71174;SDS011;58876;51.994;4.472;2022-10-17T06:03:28;25.65;;;25.65;;
71174;SDS011;58876;51.994;4.472;2022-10-17T06:05:54;36.37;;;36.37;;
71174;SDS011;58876;51.994;4.472;2022-10-17T06:08:21;33.93;;;33.93;;
71174;SDS011;58876;51.994;4.472;2022-10-17T06:10:47;32.30;;;32.30;;
71174;SDS011;58876;51.994;4.472;2022-10-17T06:13:15;44.71;;;44.71;;
71174;SDS011;58876;51.994;4.472;2022-10-17T06:15:42;26.61;;;26.61;;
71174;SDS011;58876;51.994;4.472;2022-10-17T06:18:07;32.99;;;32.99;;
71174;SDS011;58876;51.994;4.472;2022-10-17T06:20:33;42.21;;;42.21;;
71174;SDS011;58876;51.994;4.472;2022-10-17T06:22:58;40.89;;;40.89;;
71174;SDS011;58876;51.994;4.472;2022-10-17T06:25:24;21.69;;;21.69;;
71174;SDS011;58876;51.994;4.472;2022-10-17T06:27:50;23.11;;;23.11;;
71174;SDS011;58876;51.994;4.472;2022-10-17T06:30:15;24.84;;;24.84;;
71174;SDS011;58876;51.994;4.472;2022-10-17T06:32:41;20.98;;;20.98;;
71174;SDS011;58876;51.994;4.472;2022-10-17T06:35:06;27.17;;;27.17;;
71174;SDS011;58876;51.994;4.472;2022-10-17T06:37:32;26.13;;;26.13;;
71174;SDS011;58876;51.994;4.472;2022-10-17T06:39:59;17.94;;;17.94;;
71174;SDS011;58876;51.994;4.472;2022-10-17T06:42:24;13.98;;;13.98;;
71174;SDS011;58876;51.994;4.472;2022-10-17T06:44:50;10.54;;;10.54;;
71174;SDS011;58876;51.994;4.472;2022-10-17T06:47:15;9.89;;;9.89;;
71174;SDS011;58876;51.994;4.472;2022-10-17T06:49:41;9.04;;;9.04;;
71174;SDS011;58876;51.994;4.472;2022-10-17T06:52:06;11.70;;;11.70;;
71174;SDS011;58876;51.994;4.472;2022-10-17T06:54:31;10.01;;;10.01;;
71174;SDS011;58876;51.994;4.472;2022-10-17T06:56:57;10.04;;;10.04;;
71174;SDS011;58876;51.994;4.472;2022-10-17T06:59:22;8.88;;;8.88;;
71174;SDS011;58876;51.994;4.472;2022-10-17T07:01:48;9.11;;;9.11;;
71174;SDS011;58876;51.994;4.472;2022-10-17T07:04:13;9.10;;;9.10;;
71174;SDS011;58876;51.994;4.472;2022-10-17T07:06:39;11.17;;;11.17;;
71174;SDS011;58876;51.994;4.472;2022-10-17T07:09:05;14.26;;;14.26;;
71174;SDS011;58876;51.994;4.472;2022-10-17T07:11:33;18.25;;;18.25;;
71174;SDS011;58876;51.994;4.472;2022-10-17T07:13:59;28.44;;;28.44;;
71174;SDS011;58876;51.994;4.472;2022-10-17T07:16:26;30.93;;;30.93;;
71174;SDS011;58876;51.994;4.472;2022-10-17T07:18:52;26.32;;;26.32;;
71174;SDS011;58876;51.994;4.472;2022-10-17T07:21:18;46.87;;;46.87;;
71174;SDS011;58876;51.994;4.472;2022-10-17T07:23:44;50.48;;;50.48;;
71174;SDS011;58876;51.994;4.472;2022-10-17T07:26:10;46.65;;;46.65;;
71174;SDS011;58876;51.994;4.472;2022-10-17T07:28:38;56.87;;;56.87;;
71174;SDS011;58876;51.994;4.472;2022-10-17T07:31:06;89.06;;;89.06;;
71174;SDS011;58876;51.994;4.472;2022-10-17T07:33:42;183.11;;;183.11;;
71174;SDS011;58876;51.994;4.472;2022-10-17T07:36:10;274.09;;;274.09;;
71174;SDS011;58876;51.994;4.472;2022-10-17T07:38:36;490.67;;;490.67;;
71174;SDS011;58876;51.994;4.472;2022-10-17T07:41:03;591.43;;;591.43;;
71174;SDS011;58876;51.994;4.472;2022-10-17T07:43:30;692.53;;;692.53;;
71174;SDS011;58876;51.994;4.472;2022-10-17T07:45:56;437.07;;;437.07;;
71174;SDS011;58876;51.994;4.472;2022-10-17T07:48:22;212.51;;;212.51;;
71174;SDS011;58876;51.994;4.472;2022-10-17T07:50:49;233.02;;;233.02;;
71174;SDS011;58876;51.994;4.472;2022-10-17T07:53:15;103.45;;;103.45;;
71174;SDS011;58876;51.994;4.472;2022-10-17T07:55:41;53.08;;;53.08;;
71174;SDS011;58876;51.994;4.472;2022-10-17T07:58:08;58.27;;;58.27;;
71174;SDS011;58876;51.994;4.472;2022-10-17T08:00:35;51.73;;;51.73;;
71174;SDS011;58876;51.994;4.472;2022-10-17T08:03:01;68.10;;;68.10;;
71174;SDS011;58876;51.994;4.472;2022-10-17T08:05:27;76.29;;;76.29;;
71174;SDS011;58876;51.994;4.472;2022-10-17T08:07:54;93.43;;;93.43;;
71174;SDS011;58876;51.994;4.472;2022-10-17T08:10:19;90.26;;;90.26;;
71174;SDS011;58876;51.994;4.472;2022-10-17T08:12:45;56.87;;;56.87;;
71174;SDS011;58876;51.994;4.472;2022-10-17T08:15:11;51.35;;;51.35;;
71174;SDS011;58876;51.994;4.472;2022-10-17T08:17:37;88.36;;;88.36;;
71174;SDS011;58876;51.994;4.472;2022-10-17T08:20:03;38.12;;;38.12;;
71174;SDS011;58876;51.994;4.472;2022-10-17T08:22:30;35.62;;;35.62;;
71174;SDS011;58876;51.994;4.472;2022-10-17T08:24:56;39.77;;;39.77;;
71174;SDS011;58876;51.994;4.472;2022-10-17T08:27:22;28.57;;;28.57;;
71174;SDS011;58876;51.994;4.472;2022-10-17T08:29:49;17.17;;;17.17;;
71174;SDS011;58876;51.994;4.472;2022-10-17T08:32:19;10.70;;;10.70;;
71174;SDS011;58876;51.994;4.472;2022-10-17T08:34:46;12.70;;;12.70;;
71174;SDS011;58876;51.994;4.472;2022-10-17T08:37:11;10.03;;;10.03;;
71174;SDS011;58876;51.994;4.472;2022-10-17T08:39:38;8.20;;;8.20;;
71174;SDS011;58876;51.994;4.472;2022-10-17T08:47:26;11.74;;;11.74;;
71174;SDS011;58876;51.994;4.472;2022-10-17T08:49:59;10.31;;;10.31;;
71174;SDS011;58876;51.994;4.472;2022-10-17T08:52:39;14.24;;;14.24;;
71174;SDS011;58876;51.994;4.472;2022-10-17T08:55:16;15.19;;;15.19;;
71174;SDS011;58876;51.994;4.472;2022-10-17T08:58:13;11.78;;;11.78;;
71174;SDS011;58876;51.994;4.472;2022-10-17T09:04:04;17.69;;;17.69;;
71174;SDS011;58876;51.994;4.472;2022-10-17T09:06:45;15.26;;;15.26;;
71174;SDS011;58876;51.994;4.472;2022-10-17T09:09:33;10.01;;;10.01;;
71174;SDS011;58876;51.994;4.472;2022-10-17T09:15:22;8.74;;;8.74;;
71174;SDS011;58876;51.994;4.472;2022-10-17T09:18:08;7.86;;;7.86;;
71174;SDS011;58876;51.994;4.472;2022-10-17T09:20:38;10.18;;;10.18;;
71174;SDS011;58876;51.994;4.472;2022-10-17T09:23:15;7.84;;;7.84;;
71174;SDS011;58876;51.994;4.472;2022-10-17T09:25:49;9.60;;;9.60;;
71174;SDS011;58876;51.994;4.472;2022-10-17T09:28:19;9.34;;;9.34;;
71174;SDS011;58876;51.994;4.472;2022-10-17T09:31:06;9.25;;;9.25;;
71174;SDS011;58876;51.994;4.472;2022-10-17T09:33:51;16.84;;;16.84;;
71174;SDS011;58876;51.994;4.472;2022-10-17T09:36:34;16.20;;;16.20;;
71174;SDS011;58876;51.994;4.472;2022-10-17T09:39:03;21.43;;;21.43;;
71174;SDS011;58876;51.994;4.472;2022-10-17T09:41:36;33.32;;;33.32;;
71174;SDS011;58876;51.994;4.472;2022-10-17T09:44:17;42.37;;;42.37;;
71174;SDS011;58876;51.994;4.472;2022-10-17T09:46:47;44.31;;;44.31;;
71174;SDS011;58876;51.994;4.472;2022-10-17T09:49:31;74.69;;;74.69;;
71174;SDS011;58876;51.994;4.472;2022-10-17T09:52:00;94.13;;;94.13;;
71174;SDS011;58876;51.994;4.472;2022-10-17T09:57:07;98.71;;;98.71;;
71174;SDS011;58876;51.994;4.472;2022-10-17T09:59:35;93.41;;;93.41;;
71174;SDS011;58876;51.994;4.472;2022-10-17T10:04:49;157.40;;;157.40;;
71174;SDS011;58876;51.994;4.472;2022-10-17T10:07:18;207.93;;;207.93;;
71174;SDS011;58876;51.994;4.472;2022-10-17T10:09:46;211.99;;;211.99;;
71174;SDS011;58876;51.994;4.472;2022-10-17T10:12:32;236.84;;;236.84;;
71174;SDS011;58876;51.994;4.472;2022-10-17T10:15:48;219.59;;;219.59;;
71174;SDS011;58876;51.994;4.472;2022-10-17T10:17:56;235.96;;;235.96;;
71174;SDS011;58876;51.994;4.472;2022-10-17T10:20:35;254.64;;;254.64;;
71174;SDS011;58876;51.994;4.472;2022-10-17T10:25:50;279.62;;;279.62;;
71174;SDS011;58876;51.994;4.472;2022-10-17T10:28:17;261.88;;;261.88;;
71174;SDS011;58876;51.994;4.472;2022-10-17T10:30:46;244.33;;;244.33;;
71174;SDS011;58876;51.994;4.472;2022-10-17T10:33:14;227.37;;;227.37;;
71174;SDS011;58876;51.994;4.472;2022-10-17T10:35:40;188.37;;;188.37;;
71174;SDS011;58876;51.994;4.472;2022-10-17T10:38:09;167.49;;;167.49;;
71174;SDS011;58876;51.994;4.472;2022-10-17T10:40:45;202.57;;;202.57;;
71174;SDS011;58876;51.994;4.472;2022-10-17T10:43:20;234.34;;;234.34;;
71174;SDS011;58876;51.994;4.472;2022-10-17T10:45:56;250.95;;;250.95;;
71174;SDS011;58876;51.994;4.472;2022-10-17T10:48:25;255.73;;;255.73;;
71174;SDS011;58876;51.994;4.472;2022-10-17T10:51:10;281.10;;;281.10;;
71174;SDS011;58876;51.994;4.472;2022-10-17T10:54:48;303.69;;;303.69;;
71174;SDS011;58876;51.994;4.472;2022-10-17T10:56:51;221.78;;;221.78;;
71174;SDS011;58876;51.994;4.472;2022-10-17T10:59:42;111.48;;;111.48;;
71174;SDS011;58876;51.994;4.472;2022-10-17T11:02:21;83.46;;;83.46;;
71174;SDS011;58876;51.994;4.472;2022-10-17T11:07:29;133.91;;;133.91;;
71174;SDS011;58876;51.994;4.472;2022-10-17T11:13:08;211.90;;;211.90;;
71174;SDS011;58876;51.994;4.472;2022-10-17T11:18:21;300.10;;;300.10;;
71174;SDS011;58876;51.994;4.472;2022-10-17T11:23:40;243.88;;;243.88;;
71174;SDS011;58876;51.994;4.472;2022-10-17T11:26:14;231.77;;;231.77;;
71174;SDS011;58876;51.994;4.472;2022-10-17T11:28:51;204.85;;;204.85;;
71174;SDS011;58876;51.994;4.472;2022-10-17T11:31:21;167.15;;;167.15;;
71174;SDS011;58876;51.994;4.472;2022-10-17T11:33:55;115.77;;;115.77;;
71174;SDS011;58876;51.994;4.472;2022-10-17T11:36:28;72.28;;;72.28;;
71174;SDS011;58876;51.994;4.472;2022-10-17T11:39:04;35.70;;;35.70;;
71174;SDS011;58876;51.994;4.472;2022-10-17T11:46:47;12.25;;;12.25;;
71174;SDS011;58876;51.994;4.472;2022-10-17T11:49:26;14.08;;;14.08;;
71174;SDS011;58876;51.994;4.472;2022-10-17T11:54:39;5.38;;;5.38;;
71174;SDS011;58876;51.994;4.472;2022-10-17T12:02:30;5.53;;;5.53;;
71174;SDS011;58876;51.994;4.472;2022-10-17T12:05:11;5.55;;;5.55;;
71174;SDS011;58876;51.994;4.472;2022-10-17T12:10:47;4.86;;;4.86;;
71174;SDS011;58876;51.994;4.472;2022-10-17T12:15:53;9.39;;;9.39;;
71174;SDS011;58876;51.994;4.472;2022-10-17T12:18:19;6.02;;;6.02;;
71174;SDS011;58876;51.994;4.472;2022-10-17T12:20:58;4.24;;;4.24;;
71174;SDS011;58876;51.994;4.472;2022-10-17T12:23:28;4.04;;;4.04;;
71174;SDS011;58876;51.994;4.472;2022-10-17T12:25:59;4.16;;;4.16;;
71174;SDS011;58876;51.994;4.472;2022-10-17T12:28:39;4.98;;;4.98;;
71174;SDS011;58876;51.994;4.472;2022-10-17T12:46:56;45.16;;;45.16;;
71174;SDS011;58876;51.994;4.472;2022-10-17T12:49:38;168.21;;;167.66;;
71174;SDS011;58876;51.994;4.472;2022-10-17T13:02:43;23.06;;;23.06;;
71174;SDS011;58876;51.994;4.472;2022-10-17T13:05:12;8.88;;;8.88;;
71174;SDS011;58876;51.994;4.472;2022-10-17T13:07:43;8.30;;;8.30;;
71174;SDS011;58876;51.994;4.472;2022-10-17T13:10:26;8.20;;;8.20;;
71174;SDS011;58876;51.994;4.472;2022-10-17T13:13:17;6.19;;;6.19;;
71174;SDS011;58876;51.994;4.472;2022-10-17T13:15:50;10.95;;;10.95;;
71174;SDS011;58876;51.994;4.472;2022-10-17T13:18:19;6.91;;;6.91;;
71174;SDS011;58876;51.994;4.472;2022-10-17T13:21:05;8.39;;;8.39;;
71174;SDS011;58876;51.994;4.472;2022-10-17T13:23:38;9.07;;;9.07;;
71174;SDS011;58876;51.994;4.472;2022-10-17T13:26:09;11.87;;;11.87;;
71174;SDS011;58876;51.994;4.472;2022-10-17T13:28:38;6.44;;;6.44;;
71174;SDS011;58876;51.994;4.472;2022-10-17T13:31:04;8.52;;;8.52;;
71174;SDS011;58876;51.994;4.472;2022-10-17T13:33:34;7.67;;;7.67;;
71174;SDS011;58876;51.994;4.472;2022-10-17T13:36:05;5.91;;;5.91;;
71174;SDS011;58876;51.994;4.472;2022-10-17T13:38:36;58.89;;;58.89;;
71174;SDS011;58876;51.994;4.472;2022-10-17T13:41:02;25.79;;;25.79;;
71174;SDS011;58876;51.994;4.472;2022-10-17T13:43:34;7.86;;;7.86;;
71174;SDS011;58876;51.994;4.472;2022-10-17T13:46:01;11.84;;;11.84;;
71174;SDS011;58876;51.994;4.472;2022-10-17T13:48:30;12.09;;;12.09;;
71174;SDS011;58876;51.994;4.472;2022-10-17T13:51:00;4.90;;;4.90;;
71174;SDS011;58876;51.994;4.472;2022-10-17T13:53:35;5.32;;;5.32;;
71174;SDS011;58876;51.994;4.472;2022-10-17T13:58:45;5.82;;;5.82;;
71174;SDS011;58876;51.994;4.472;2022-10-17T14:01:14;6.58;;;6.58;;
71174;SDS011;58876;51.994;4.472;2022-10-17T14:03:41;7.11;;;7.11;;
71174;SDS011;58876;51.994;4.472;2022-10-17T14:06:15;4.63;;;4.63;;
71174;SDS011;58876;51.994;4.472;2022-10-17T14:08:55;3.75;;;3.75;;
71174;SDS011;58876;51.994;4.472;2022-10-17T14:11:26;3.12;;;3.12;;
71174;SDS011;58876;51.994;4.472;2022-10-17T14:13:56;3.05;;;3.05;;
71174;SDS011;58876;51.994;4.472;2022-10-17T14:16:24;3.06;;;3.06;;
71174;SDS011;58876;51.994;4.472;2022-10-17T14:18:57;3.46;;;3.46;;
71174;SDS011;58876;51.994;4.472;2022-10-17T14:21:24;3.67;;;3.67;;
71174;SDS011;58876;51.994;4.472;2022-10-17T14:24:10;3.39;;;3.39;;
71174;SDS011;58876;51.994;4.472;2022-10-17T14:26:49;5.34;;;5.34;;
71174;SDS011;58876;51.994;4.472;2022-10-17T14:31:57;5.04;;;5.04;;
71174;SDS011;58876;51.994;4.472;2022-10-17T14:34:27;9.66;;;9.66;;
71174;SDS011;58876;51.994;4.472;2022-10-17T14:36:56;12.58;;;12.58;;
71174;SDS011;58876;51.994;4.472;2022-10-17T14:39:23;18.51;;;18.51;;
71174;SDS011;58876;51.994;4.472;2022-10-17T14:41:51;53.11;;;53.11;;
71174;SDS011;58876;51.994;4.472;2022-10-17T14:46:50;54.20;;;54.20;;
71174;SDS011;58876;51.994;4.472;2022-10-17T14:49:22;37.43;;;37.43;;
71174;SDS011;58876;51.994;4.472;2022-10-17T14:54:37;34.83;;;34.83;;
71174;SDS011;58876;51.994;4.472;2022-10-17T15:02:31;8.06;;;8.06;;
71174;SDS011;58876;51.994;4.472;2022-10-17T15:04:57;6.85;;;6.85;;
71174;SDS011;58876;51.994;4.472;2022-10-17T15:07:22;9.21;;;9.21;;
71174;SDS011;58876;51.994;4.472;2022-10-17T15:09:49;16.00;;;16.00;;
71174;SDS011;58876;51.994;4.472;2022-10-17T15:12:17;8.88;;;8.88;;
71174;SDS011;58876;51.994;4.472;2022-10-17T15:14:45;4.10;;;4.10;;
71174;SDS011;58876;51.994;4.472;2022-10-17T15:17:19;2.90;;;2.90;;
71174;SDS011;58876;51.994;4.472;2022-10-17T15:19:52;2.95;;;2.95;;
71174;SDS011;58876;51.994;4.472;2022-10-17T15:22:18;3.66;;;3.66;;
71174;SDS011;58876;51.994;4.472;2022-10-17T15:24:44;5.26;;;5.26;;
71174;SDS011;58876;51.994;4.472;2022-10-17T15:27:20;3.99;;;3.99;;
71174;SDS011;58876;51.994;4.472;2022-10-17T15:29:48;4.52;;;4.52;;
71174;SDS011;58876;51.994;4.472;2022-10-17T15:32:14;6.99;;;6.99;;
71174;SDS011;58876;51.994;4.472;2022-10-17T15:34:40;11.09;;;11.09;;
71174;SDS011;58876;51.994;4.472;2022-10-17T15:37:06;7.39;;;7.39;;
71174;SDS011;58876;51.994;4.472;2022-10-17T15:39:49;7.17;;;7.17;;
71174;SDS011;58876;51.994;4.472;2022-10-17T15:42:18;8.74;;;8.74;;
71174;SDS011;58876;51.994;4.472;2022-10-17T15:44:51;20.16;;;20.16;;
71174;SDS011;58876;51.994;4.472;2022-10-17T15:47:25;29.15;;;29.15;;
71174;SDS011;58876;51.994;4.472;2022-10-17T15:50:03;43.76;;;43.76;;
71174;SDS011;58876;51.994;4.472;2022-10-17T15:52:30;70.22;;;70.22;;
71174;SDS011;58876;51.994;4.472;2022-10-17T15:54:55;88.27;;;88.27;;
71174;SDS011;58876;51.994;4.472;2022-10-17T15:57:22;89.82;;;89.82;;
71174;SDS011;58876;51.994;4.472;2022-10-17T15:59:53;103.30;;;103.30;;
71174;SDS011;58876;51.994;4.472;2022-10-17T16:02:22;97.46;;;97.46;;
71174;SDS011;58876;51.994;4.472;2022-10-17T16:04:48;176.39;;;176.39;;
71174;SDS011;58876;51.994;4.472;2022-10-17T16:07:15;144.18;;;144.18;;
71174;SDS011;58876;51.994;4.472;2022-10-17T16:09:42;117.71;;;117.71;;
71174;SDS011;58876;51.994;4.472;2022-10-17T16:12:10;158.82;;;158.82;;
71174;SDS011;58876;51.994;4.472;2022-10-17T16:14:40;123.22;;;123.22;;
71174;SDS011;58876;51.994;4.472;2022-10-17T16:17:08;102.15;;;102.15;;
71174;SDS011;58876;51.994;4.472;2022-10-17T16:19:38;116.54;;;116.54;;
71174;SDS011;58876;51.994;4.472;2022-10-17T16:22:04;128.48;;;128.48;;
71174;SDS011;58876;51.994;4.472;2022-10-17T16:24:31;119.01;;;119.01;;
71174;SDS011;58876;51.994;4.472;2022-10-17T16:26:56;84.96;;;84.96;;
71174;SDS011;58876;51.994;4.472;2022-10-17T16:29:22;72.36;;;72.36;;
71174;SDS011;58876;51.994;4.472;2022-10-17T16:31:47;56.42;;;56.42;;